sensor_id;sensor_type;location;lat;lon;timestamp;temperature;humidity
71754;DHT22;59593;51.716;7.016;2022-09-13T00:00:50;17.10;99.90
71754;DHT22;59593;51.716;7.016;2022-09-13T00:03:17;17.00;99.90
71754;DHT22;59593;51.716;7.016;2022-09-13T00:05:43;17.00;99.90
71754;DHT22;59593;51.716;7.016;2022-09-13T00:08:09;17.00;99.90
71754;DHT22;59593;51.716;7.016;2022-09-13T00:10:36;17.10;99.90
71754;DHT22;59593;51.716;7.016;2022-09-13T00:13:05;17.00;99.90
71754;DHT22;59593;51.716;7.016;2022-09-13T00:15:33;17.10;99.90
71754;DHT22;59593;51.716;7.016;2022-09-13T00:17:59;17.30;99.90
71754;DHT22;59593;51.716;7.016;2022-09-13T00:20:25;17.30;99.90
71754;DHT22;59593;51.716;7.016;2022-09-13T00:22:51;17.30;99.90
71754;DHT22;59593;51.716;7.016;2022-09-13T00:25:17;17.30;99.90
71754;DHT22;59593;51.716;7.016;2022-09-13T00:27:42;17.30;99.90
71754;DHT22;59593;51.716;7.016;2022-09-13T00:30:10;17.30;99.90
71754;DHT22;59593;51.716;7.016;2022-09-13T00:32:36;17.30;99.90
71754;DHT22;59593;51.716;7.016;2022-09-13T00:35:03;17.40;99.90
71754;DHT22;59593;51.716;7.016;2022-09-13T00:37:29;17.40;99.90
71754;DHT22;59593;51.716;7.016;2022-09-13T00:39:56;17.30;99.90
71754;DHT22;59593;51.716;7.016;2022-09-13T00:42:26;17.30;99.90
71754;DHT22;59593;51.716;7.016;2022-09-13T00:44:56;17.40;99.90
71754;DHT22;59593;51.716;7.016;2022-09-13T00:47:33;17.50;99.90
71754;DHT22;59593;51.716;7.016;2022-09-13T00:53:15;17.50;99.90
71754;DHT22;59593;51.716;7.016;2022-09-13T00:55:59;17.60;99.90
71754;DHT22;59593;51.716;7.016;2022-09-13T00:58:32;17.70;99.90
71754;DHT22;59593;51.716;7.016;2022-09-13T01:01:00;17.80;99.90
71754;DHT22;59593;51.716;7.016;2022-09-13T01:03:29;17.80;99.90
71754;DHT22;59593;51.716;7.016;2022-09-13T01:06:09;17.90;99.90
71754;DHT22;59593;51.716;7.016;2022-09-13T01:08:37;18.00;99.90
71754;DHT22;59593;51.716;7.016;2022-09-13T01:11:06;17.90;99.90
71754;DHT22;59593;51.716;7.016;2022-09-13T01:13:37;18.00;99.90
71754;DHT22;59593;51.716;7.016;2022-09-13T01:16:04;18.00;99.90
71754;DHT22;59593;51.716;7.016;2022-09-13T01:18:29;18.10;99.90
71754;DHT22;59593;51.716;7.016;2022-09-13T01:38:13;17.70;99.90
71754;DHT22;59593;51.716;7.016;2022-09-13T01:46:20;17.50;99.90
71754;DHT22;59593;51.716;7.016;2022-09-13T01:56:55;17.40;99.90
71754;DHT22;59593;51.716;7.016;2022-09-13T02:02:33;17.20;99.90
71754;DHT22;59593;51.716;7.016;2022-09-13T02:07:57;17.20;99.90
71754;DHT22;59593;51.716;7.016;2022-09-13T02:10:32;17.20;99.90
71754;DHT22;59593;51.716;7.016;2022-09-13T02:12:58;17.10;99.90
71754;DHT22;59593;51.716;7.016;2022-09-13T02:15:33;17.20;99.90
71754;DHT22;59593;51.716;7.016;2022-09-13T02:20:33;17.10;99.90
71754;DHT22;59593;51.716;7.016;2022-09-13T02:23:04;17.10;99.90
71754;DHT22;59593;51.716;7.016;2022-09-13T02:25:34;17.10;99.90
71754;DHT22;59593;51.716;7.016;2022-09-13T02:28:04;17.10;99.90
71754;DHT22;59593;51.716;7.016;2022-09-13T02:30:32;17.30;99.90
71754;DHT22;59593;51.716;7.016;2022-09-13T02:33:13;17.40;99.90
71754;DHT22;59593;51.716;7.016;2022-09-13T02:36:04;17.40;99.90
71754;DHT22;59593;51.716;7.016;2022-09-13T02:38:38;17.30;99.90
71754;DHT22;59593;51.716;7.016;2022-09-13T02:44:05;17.40;99.90
71754;DHT22;59593;51.716;7.016;2022-09-13T02:49:43;17.40;99.90
71754;DHT22;59593;51.716;7.016;2022-09-13T02:52:21;17.30;99.90
71754;DHT22;59593;51.716;7.016;2022-09-13T02:54:56;17.20;99.90
71754;DHT22;59593;51.716;7.016;2022-09-13T02:57:32;17.20;99.90
71754;DHT22;59593;51.716;7.016;2022-09-13T03:00:03;17.10;99.90
71754;DHT22;59593;51.716;7.016;2022-09-13T03:02:33;17.00;99.90
71754;DHT22;59593;51.716;7.016;2022-09-13T03:05:00;16.90;99.90
71754;DHT22;59593;51.716;7.016;2022-09-13T03:07:26;16.80;99.90
71754;DHT22;59593;51.716;7.016;2022-09-13T03:09:57;16.70;99.90
71754;DHT22;59593;51.716;7.016;2022-09-13T03:17:54;16.60;99.90
71754;DHT22;59593;51.716;7.016;2022-09-13T03:25:54;16.80;99.90
71754;DHT22;59593;51.716;7.016;2022-09-13T03:31:30;16.90;99.90
71754;DHT22;59593;51.716;7.016;2022-09-13T03:34:02;16.90;99.90
71754;DHT22;59593;51.716;7.016;2022-09-13T03:39:58;17.10;99.90
71754;DHT22;59593;51.716;7.016;2022-09-13T03:42:44;17.20;99.90
71754;DHT22;59593;51.716;7.016;2022-09-13T03:45:11;17.30;99.90
71754;DHT22;59593;51.716;7.016;2022-09-13T03:47:40;17.40;99.90
71754;DHT22;59593;51.716;7.016;2022-09-13T03:50:07;17.50;99.90
71754;DHT22;59593;51.716;7.016;2022-09-13T03:52:34;17.50;99.90
71754;DHT22;59593;51.716;7.016;2022-09-13T03:55:00;17.50;99.90
71754;DHT22;59593;51.716;7.016;2022-09-13T03:57:27;17.50;99.90
71754;DHT22;59593;51.716;7.016;2022-09-13T03:59:54;17.50;99.90
71754;DHT22;59593;51.716;7.016;2022-09-13T04:02:21;17.50;99.90
71754;DHT22;59593;51.716;7.016;2022-09-13T04:04:48;17.50;99.90
71754;DHT22;59593;51.716;7.016;2022-09-13T04:07:23;17.50;99.90
71754;DHT22;59593;51.716;7.016;2022-09-13T04:09:48;17.40;99.90
71754;DHT22;59593;51.716;7.016;2022-09-13T04:12:16;17.40;99.90
71754;DHT22;59593;51.716;7.016;2022-09-13T04:14:42;17.40;99.90
71754;DHT22;59593;51.716;7.016;2022-09-13T04:17:08;17.40;99.90
71754;DHT22;59593;51.716;7.016;2022-09-13T04:19:34;17.50;99.90
71754;DHT22;59593;51.716;7.016;2022-09-13T04:21:59;17.50;99.90
71754;DHT22;59593;51.716;7.016;2022-09-13T04:24:26;17.50;99.90
71754;DHT22;59593;51.716;7.016;2022-09-13T04:26:53;17.50;99.90
71754;DHT22;59593;51.716;7.016;2022-09-13T04:29:20;17.50;99.90
71754;DHT22;59593;51.716;7.016;2022-09-13T04:31:46;17.50;99.90
71754;DHT22;59593;51.716;7.016;2022-09-13T04:34:12;17.30;99.90
71754;DHT22;59593;51.716;7.016;2022-09-13T04:36:38;17.30;99.90
71754;DHT22;59593;51.716;7.016;2022-09-13T04:39:04;17.40;99.90
71754;DHT22;59593;51.716;7.016;2022-09-13T04:41:30;17.50;99.90
71754;DHT22;59593;51.716;7.016;2022-09-13T04:43:58;17.60;99.90
71754;DHT22;59593;51.716;7.016;2022-09-13T04:46:23;17.60;99.90
71754;DHT22;59593;51.716;7.016;2022-09-13T04:48:50;17.70;99.90
71754;DHT22;59593;51.716;7.016;2022-09-13T04:51:16;17.60;99.90
71754;DHT22;59593;51.716;7.016;2022-09-13T04:53:43;17.60;99.90
71754;DHT22;59593;51.716;7.016;2022-09-13T04:56:09;17.50;99.90
71754;DHT22;59593;51.716;7.016;2022-09-13T04:58:35;17.50;99.90
71754;DHT22;59593;51.716;7.016;2022-09-13T05:01:05;17.60;99.90
71754;DHT22;59593;51.716;7.016;2022-09-13T05:03:32;17.60;99.90
71754;DHT22;59593;51.716;7.016;2022-09-13T05:06:05;17.70;99.90
71754;DHT22;59593;51.716;7.016;2022-09-13T05:08:31;17.70;99.90
71754;DHT22;59593;51.716;7.016;2022-09-13T05:10:57;17.60;99.90
71754;DHT22;59593;51.716;7.016;2022-09-13T05:13:24;17.60;99.90
71754;DHT22;59593;51.716;7.016;2022-09-13T05:15:54;17.50;99.90
71754;DHT22;59593;51.716;7.016;2022-09-13T05:18:20;17.60;99.90
71754;DHT22;59593;51.716;7.016;2022-09-13T05:20:46;17.70;99.90
71754;DHT22;59593;51.716;7.016;2022-09-13T05:23:11;17.70;99.90
71754;DHT22;59593;51.716;7.016;2022-09-13T05:25:37;17.70;99.90
71754;DHT22;59593;51.716;7.016;2022-09-13T05:28:02;17.20;99.90
71754;DHT22;59593;51.716;7.016;2022-09-13T05:30:28;16.90;99.90
71754;DHT22;59593;51.716;7.016;2022-09-13T05:32:53;17.00;99.90
71754;DHT22;59593;51.716;7.016;2022-09-13T05:35:19;17.00;99.90
71754;DHT22;59593;51.716;7.016;2022-09-13T05:37:44;17.00;99.90
71754;DHT22;59593;51.716;7.016;2022-09-13T05:40:10;17.00;99.90
71754;DHT22;59593;51.716;7.016;2022-09-13T05:42:36;17.00;99.90
71754;DHT22;59593;51.716;7.016;2022-09-13T05:45:01;17.20;99.90
71754;DHT22;59593;51.716;7.016;2022-09-13T05:47:27;17.30;99.90
71754;DHT22;59593;51.716;7.016;2022-09-13T05:49:52;17.30;99.90
71754;DHT22;59593;51.716;7.016;2022-09-13T05:52:18;17.20;99.90
71754;DHT22;59593;51.716;7.016;2022-09-13T05:54:43;17.30;99.90
71754;DHT22;59593;51.716;7.016;2022-09-13T05:57:09;17.50;99.90
71754;DHT22;59593;51.716;7.016;2022-09-13T05:59:34;17.60;99.90
71754;DHT22;59593;51.716;7.016;2022-09-13T06:02:00;17.70;99.90
71754;DHT22;59593;51.716;7.016;2022-09-13T06:04:26;17.70;99.90
71754;DHT22;59593;51.716;7.016;2022-09-13T06:06:51;17.80;99.90
71754;DHT22;59593;51.716;7.016;2022-09-13T06:09:17;17.80;99.90
71754;DHT22;59593;51.716;7.016;2022-09-13T06:11:43;18.00;99.90
71754;DHT22;59593;51.716;7.016;2022-09-13T06:14:08;18.10;99.90
71754;DHT22;59593;51.716;7.016;2022-09-13T06:16:34;18.10;99.90
71754;DHT22;59593;51.716;7.016;2022-09-13T06:19:00;18.20;99.90
71754;DHT22;59593;51.716;7.016;2022-09-13T06:21:25;18.30;99.90
71754;DHT22;59593;51.716;7.016;2022-09-13T06:23:53;18.30;99.90
71754;DHT22;59593;51.716;7.016;2022-09-13T06:26:21;18.30;99.90
71754;DHT22;59593;51.716;7.016;2022-09-13T06:28:48;18.40;99.90
71754;DHT22;59593;51.716;7.016;2022-09-13T06:31:15;18.50;99.90
71754;DHT22;59593;51.716;7.016;2022-09-13T06:33:42;18.30;99.90
71754;DHT22;59593;51.716;7.016;2022-09-13T06:36:16;18.50;99.90
71754;DHT22;59593;51.716;7.016;2022-09-13T06:38:46;18.30;99.90
71754;DHT22;59593;51.716;7.016;2022-09-13T06:41:15;18.30;99.90
71754;DHT22;59593;51.716;7.016;2022-09-13T06:43:43;18.30;99.90
71754;DHT22;59593;51.716;7.016;2022-09-13T06:46:14;18.20;99.90
71754;DHT22;59593;51.716;7.016;2022-09-13T06:48:42;18.10;99.90
71754;DHT22;59593;51.716;7.016;2022-09-13T06:51:12;18.30;99.90
71754;DHT22;59593;51.716;7.016;2022-09-13T06:53:39;18.40;99.90
71754;DHT22;59593;51.716;7.016;2022-09-13T06:56:06;18.50;99.90
71754;DHT22;59593;51.716;7.016;2022-09-13T06:58:37;18.50;99.90
71754;DHT22;59593;51.716;7.016;2022-09-13T07:01:16;18.50;99.90
71754;DHT22;59593;51.716;7.016;2022-09-13T07:03:44;18.50;99.90
71754;DHT22;59593;51.716;7.016;2022-09-13T07:06:15;18.50;99.90
71754;DHT22;59593;51.716;7.016;2022-09-13T07:08:41;18.50;99.90
71754;DHT22;59593;51.716;7.016;2022-09-13T07:11:08;18.60;99.90
71754;DHT22;59593;51.716;7.016;2022-09-13T07:13:34;18.80;99.90
71754;DHT22;59593;51.716;7.016;2022-09-13T07:16:02;18.80;99.90
71754;DHT22;59593;51.716;7.016;2022-09-13T07:18:28;18.80;99.90
71754;DHT22;59593;51.716;7.016;2022-09-13T07:20:58;18.90;99.90
71754;DHT22;59593;51.716;7.016;2022-09-13T07:23:25;19.00;99.90
71754;DHT22;59593;51.716;7.016;2022-09-13T07:25:55;19.10;99.90
71754;DHT22;59593;51.716;7.016;2022-09-13T07:28:30;19.20;99.90
71754;DHT22;59593;51.716;7.016;2022-09-13T07:31:02;19.30;99.90
71754;DHT22;59593;51.716;7.016;2022-09-13T07:33:28;19.30;99.90
71754;DHT22;59593;51.716;7.016;2022-09-13T07:35:55;19.50;99.90
71754;DHT22;59593;51.716;7.016;2022-09-13T07:38:20;19.60;99.90
71754;DHT22;59593;51.716;7.016;2022-09-13T07:40:53;19.60;99.90
71754;DHT22;59593;51.716;7.016;2022-09-13T07:43:20;19.70;99.90
71754;DHT22;59593;51.716;7.016;2022-09-13T07:45:46;19.80;99.90
71754;DHT22;59593;51.716;7.016;2022-09-13T07:48:11;19.60;99.90
71754;DHT22;59593;51.716;7.016;2022-09-13T07:50:37;19.70;99.90
71754;DHT22;59593;51.716;7.016;2022-09-13T07:53:03;19.80;99.90
71754;DHT22;59593;51.716;7.016;2022-09-13T07:55:28;19.80;99.90
71754;DHT22;59593;51.716;7.016;2022-09-13T07:57:54;19.90;99.90
71754;DHT22;59593;51.716;7.016;2022-09-13T08:00:20;20.10;99.90
71754;DHT22;59593;51.716;7.016;2022-09-13T08:02:45;20.20;99.90
71754;DHT22;59593;51.716;7.016;2022-09-13T08:05:11;20.30;99.90
71754;DHT22;59593;51.716;7.016;2022-09-13T08:07:38;20.40;99.90
71754;DHT22;59593;51.716;7.016;2022-09-13T08:10:04;20.40;99.90
71754;DHT22;59593;51.716;7.016;2022-09-13T08:12:30;20.50;99.90
71754;DHT22;59593;51.716;7.016;2022-09-13T08:14:55;20.60;99.90
71754;DHT22;59593;51.716;7.016;2022-09-13T08:17:21;20.60;99.90
71754;DHT22;59593;51.716;7.016;2022-09-13T08:19:46;20.60;99.90
71754;DHT22;59593;51.716;7.016;2022-09-13T08:22:12;20.60;99.90
71754;DHT22;59593;51.716;7.016;2022-09-13T08:24:37;20.80;99.90
71754;DHT22;59593;51.716;7.016;2022-09-13T08:27:03;20.80;99.90
71754;DHT22;59593;51.716;7.016;2022-09-13T08:29:29;20.80;99.90
71754;DHT22;59593;51.716;7.016;2022-09-13T08:31:54;20.90;99.90
71754;DHT22;59593;51.716;7.016;2022-09-13T08:34:20;21.00;99.90
71754;DHT22;59593;51.716;7.016;2022-09-13T08:36:46;21.20;99.90
71754;DHT22;59593;51.716;7.016;2022-09-13T08:39:12;21.20;99.90
71754;DHT22;59593;51.716;7.016;2022-09-13T08:44:28;21.40;99.90
71754;DHT22;59593;51.716;7.016;2022-09-13T08:47:01;21.40;99.90
71754;DHT22;59593;51.716;7.016;2022-09-13T08:49:37;21.50;99.90
71754;DHT22;59593;51.716;7.016;2022-09-13T08:52:28;21.80;99.90
71754;DHT22;59593;51.716;7.016;2022-09-13T08:54:56;21.90;99.90
71754;DHT22;59593;51.716;7.016;2022-09-13T08:57:31;21.90;99.90
71754;DHT22;59593;51.716;7.016;2022-09-13T09:00:20;21.90;99.90
71754;DHT22;59593;51.716;7.016;2022-09-13T09:03:09;21.60;99.90
71754;DHT22;59593;51.716;7.016;2022-09-13T09:05:50;21.70;99.90
71754;DHT22;59593;51.716;7.016;2022-09-13T09:08:32;21.90;99.90
71754;DHT22;59593;51.716;7.016;2022-09-13T09:11:07;22.10;99.90
71754;DHT22;59593;51.716;7.016;2022-09-13T09:13:59;22.20;99.90
71754;DHT22;59593;51.716;7.016;2022-09-13T09:19:26;22.20;99.90
71754;DHT22;59593;51.716;7.016;2022-09-13T09:21:54;22.40;99.90
71754;DHT22;59593;51.716;7.016;2022-09-13T09:24:24;22.40;99.90
71754;DHT22;59593;51.716;7.016;2022-09-13T09:26:52;22.50;99.90
71754;DHT22;59593;51.716;7.016;2022-09-13T09:29:21;22.50;99.90
71754;DHT22;59593;51.716;7.016;2022-09-13T09:37:26;22.60;99.90
71754;DHT22;59593;51.716;7.016;2022-09-13T09:39:54;22.60;99.90
71754;DHT22;59593;51.716;7.016;2022-09-13T09:42:25;22.60;99.90
71754;DHT22;59593;51.716;7.016;2022-09-13T09:44:56;22.80;99.90
71754;DHT22;59593;51.716;7.016;2022-09-13T09:47:33;22.70;99.90
71754;DHT22;59593;51.716;7.016;2022-09-13T09:50:13;22.70;99.90
71754;DHT22;59593;51.716;7.016;2022-09-13T09:52:45;22.70;99.90
71754;DHT22;59593;51.716;7.016;2022-09-13T09:55:17;22.80;99.90
71754;DHT22;59593;51.716;7.016;2022-09-13T10:00:22;22.20;99.90
71754;DHT22;59593;51.716;7.016;2022-09-13T10:02:51;22.20;99.90
71754;DHT22;59593;51.716;7.016;2022-09-13T10:05:19;22.70;99.90
71754;DHT22;59593;51.716;7.016;2022-09-13T10:07:59;23.00;99.90
71754;DHT22;59593;51.716;7.016;2022-09-13T10:12:59;22.60;99.90
71754;DHT22;59593;51.716;7.016;2022-09-13T10:15:29;22.70;99.90
71754;DHT22;59593;51.716;7.016;2022-09-13T10:18:26;22.50;99.90
71754;DHT22;59593;51.716;7.016;2022-09-13T10:23:42;22.60;99.90
71754;DHT22;59593;51.716;7.016;2022-09-13T10:26:12;22.50;99.90
71754;DHT22;59593;51.716;7.016;2022-09-13T10:28:55;22.30;99.90
71754;DHT22;59593;51.716;7.016;2022-09-13T10:31:30;22.80;99.90
71754;DHT22;59593;51.716;7.016;2022-09-13T10:34:06;22.90;99.90
71754;DHT22;59593;51.716;7.016;2022-09-13T10:36:36;22.70;99.90
71754;DHT22;59593;51.716;7.016;2022-09-13T10:39:12;23.50;99.90
71754;DHT22;59593;51.716;7.016;2022-09-13T10:41:46;23.20;99.90
71754;DHT22;59593;51.716;7.016;2022-09-13T10:44:28;22.80;99.90
71754;DHT22;59593;51.716;7.016;2022-09-13T10:46:55;22.90;99.90
71754;DHT22;59593;51.716;7.016;2022-09-13T10:49:44;22.70;99.90
71754;DHT22;59593;51.716;7.016;2022-09-13T10:52:35;22.90;99.90
71754;DHT22;59593;51.716;7.016;2022-09-13T10:57:48;23.60;99.90
71754;DHT22;59593;51.716;7.016;2022-09-13T11:00:16;23.40;99.90
71754;DHT22;59593;51.716;7.016;2022-09-13T11:05:23;23.10;99.90
71754;DHT22;59593;51.716;7.016;2022-09-13T11:08:02;23.00;99.90
71754;DHT22;59593;51.716;7.016;2022-09-13T11:10:34;22.80;99.90
71754;DHT22;59593;51.716;7.016;2022-09-13T11:18:30;23.10;99.90
71754;DHT22;59593;51.716;7.016;2022-09-13T11:24:01;23.40;99.90
71754;DHT22;59593;51.716;7.016;2022-09-13T11:26:58;23.50;99.90
71754;DHT22;59593;51.716;7.016;2022-09-13T11:35:21;23.80;99.90
71754;DHT22;59593;51.716;7.016;2022-09-13T11:38:46;23.50;99.90
71754;DHT22;59593;51.716;7.016;2022-09-13T11:43:48;23.50;99.90
71754;DHT22;59593;51.716;7.016;2022-09-13T11:46:26;24.70;99.90
71754;DHT22;59593;51.716;7.016;2022-09-13T11:51:54;24.70;99.90
71754;DHT22;59593;51.716;7.016;2022-09-13T11:54:56;25.80;99.90
71754;DHT22;59593;51.716;7.016;2022-09-13T11:57:32;26.00;99.90
71754;DHT22;59593;51.716;7.016;2022-09-13T12:02:41;25.50;99.90
71754;DHT22;59593;51.716;7.016;2022-09-13T12:05:17;24.80;99.90
71754;DHT22;59593;51.716;7.016;2022-09-13T12:07:47;24.40;99.90
71754;DHT22;59593;51.716;7.016;2022-09-13T12:12:48;24.40;99.90
71754;DHT22;59593;51.716;7.016;2022-09-13T12:15:20;24.80;99.90
71754;DHT22;59593;51.716;7.016;2022-09-13T12:18:01;24.40;99.90
71754;DHT22;59593;51.716;7.016;2022-09-13T12:20:41;24.40;99.90
71754;DHT22;59593;51.716;7.016;2022-09-13T12:23:14;24.20;99.90
71754;DHT22;59593;51.716;7.016;2022-09-13T12:25:55;24.00;99.90
71754;DHT22;59593;51.716;7.016;2022-09-13T12:28:25;23.50;99.90
71754;DHT22;59593;51.716;7.016;2022-09-13T12:30:56;23.20;99.90
71754;DHT22;59593;51.716;7.016;2022-09-13T12:33:22;23.50;99.90
71754;DHT22;59593;51.716;7.016;2022-09-13T12:36:15;23.50;99.90
71754;DHT22;59593;51.716;7.016;2022-09-13T12:52:24;23.50;99.90
71754;DHT22;59593;51.716;7.016;2022-09-13T13:00:26;23.30;99.90
71754;DHT22;59593;51.716;7.016;2022-09-13T13:05:46;23.10;99.90
71754;DHT22;59593;51.716;7.016;2022-09-13T13:13:37;23.30;99.90
71754;DHT22;59593;51.716;7.016;2022-09-13T13:16:20;24.10;99.90
71754;DHT22;59593;51.716;7.016;2022-09-13T13:18:49;24.50;99.90
71754;DHT22;59593;51.716;7.016;2022-09-13T13:26:54;24.60;99.90
71754;DHT22;59593;51.716;7.016;2022-09-13T13:29:28;25.30;99.90
71754;DHT22;59593;51.716;7.016;2022-09-13T13:42:21;24.90;99.90
71754;DHT22;59593;51.716;7.016;2022-09-13T13:49:51;24.40;99.90
71754;DHT22;59593;51.716;7.016;2022-09-13T13:57:36;24.40;99.90
71754;DHT22;59593;51.716;7.016;2022-09-13T14:00:19;24.30;99.90
71754;DHT22;59593;51.716;7.016;2022-09-13T14:22:04;25.40;99.90
71754;DHT22;59593;51.716;7.016;2022-09-13T14:24:35;25.90;99.90
71754;DHT22;59593;51.716;7.016;2022-09-13T14:27:02;25.90;99.90
71754;DHT22;59593;51.716;7.016;2022-09-13T14:29:28;25.80;99.90
71754;DHT22;59593;51.716;7.016;2022-09-13T14:32:02;26.10;99.90
71754;DHT22;59593;51.716;7.016;2022-09-13T14:34:36;26.10;99.90
71754;DHT22;59593;51.716;7.016;2022-09-13T14:37:16;25.10;99.90
71754;DHT22;59593;51.716;7.016;2022-09-13T14:42:45;25.20;99.90
71754;DHT22;59593;51.716;7.016;2022-09-13T14:45:20;25.00;99.90
71754;DHT22;59593;51.716;7.016;2022-09-13T14:48:15;24.80;99.90
71754;DHT22;59593;51.716;7.016;2022-09-13T14:51:32;24.30;99.90
71754;DHT22;59593;51.716;7.016;2022-09-13T14:53:39;23.70;99.90
71754;DHT22;59593;51.716;7.016;2022-09-13T14:56:25;24.10;99.90
71754;DHT22;59593;51.716;7.016;2022-09-13T14:58:54;24.00;99.90
71754;DHT22;59593;51.716;7.016;2022-09-13T15:01:27;23.90;99.90
71754;DHT22;59593;51.716;7.016;2022-09-13T15:03:55;23.40;99.90
71754;DHT22;59593;51.716;7.016;2022-09-13T15:06:29;23.20;99.90
71754;DHT22;59593;51.716;7.016;2022-09-13T15:09:13;23.10;99.90
71754;DHT22;59593;51.716;7.016;2022-09-13T15:11:56;23.00;99.90
71754;DHT22;59593;51.716;7.016;2022-09-13T15:17:05;23.20;99.90
71754;DHT22;59593;51.716;7.016;2022-09-13T15:20:03;23.20;99.90
71754;DHT22;59593;51.716;7.016;2022-09-13T15:22:31;23.40;99.90
71754;DHT22;59593;51.716;7.016;2022-09-13T15:24:59;23.60;99.90
71754;DHT22;59593;51.716;7.016;2022-09-13T15:27:43;24.00;99.90
71754;DHT22;59593;51.716;7.016;2022-09-13T15:30:27;23.90;99.90
71754;DHT22;59593;51.716;7.016;2022-09-13T15:35:35;23.60;99.90
71754;DHT22;59593;51.716;7.016;2022-09-13T15:38:27;23.50;99.90
71754;DHT22;59593;51.716;7.016;2022-09-13T15:41:17;23.90;99.90
71754;DHT22;59593;51.716;7.016;2022-09-13T15:43:43;24.20;99.90
71754;DHT22;59593;51.716;7.016;2022-09-13T15:46:14;24.40;99.90
71754;DHT22;59593;51.716;7.016;2022-09-13T15:48:44;23.70;99.90
71754;DHT22;59593;51.716;7.016;2022-09-13T15:51:13;23.70;99.90
71754;DHT22;59593;51.716;7.016;2022-09-13T15:53:40;23.90;99.90
71754;DHT22;59593;51.716;7.016;2022-09-13T15:56:08;23.40;99.90
71754;DHT22;59593;51.716;7.016;2022-09-13T15:58:35;23.40;99.90
71754;DHT22;59593;51.716;7.016;2022-09-13T16:01:01;23.80;99.90
71754;DHT22;59593;51.716;7.016;2022-09-13T16:03:27;24.00;99.90
71754;DHT22;59593;51.716;7.016;2022-09-13T16:05:53;24.10;99.90
71754;DHT22;59593;51.716;7.016;2022-09-13T16:08:19;24.20;99.90
71754;DHT22;59593;51.716;7.016;2022-09-13T16:10:45;23.80;99.90
71754;DHT22;59593;51.716;7.016;2022-09-13T16:13:11;23.60;99.90
71754;DHT22;59593;51.716;7.016;2022-09-13T16:15:36;23.50;99.90
71754;DHT22;59593;51.716;7.016;2022-09-13T16:18:02;23.20;99.90
71754;DHT22;59593;51.716;7.016;2022-09-13T16:20:28;23.00;99.90
71754;DHT22;59593;51.716;7.016;2022-09-13T16:22:54;22.90;99.90
71754;DHT22;59593;51.716;7.016;2022-09-13T16:25:19;23.10;99.90
71754;DHT22;59593;51.716;7.016;2022-09-13T16:27:45;22.90;99.90
71754;DHT22;59593;51.716;7.016;2022-09-13T16:30:16;23.00;99.90
71754;DHT22;59593;51.716;7.016;2022-09-13T16:32:43;23.10;99.90
71754;DHT22;59593;51.716;7.016;2022-09-13T16:35:10;23.10;99.90
71754;DHT22;59593;51.716;7.016;2022-09-13T16:37:37;23.20;99.90
71754;DHT22;59593;51.716;7.016;2022-09-13T16:40:03;23.20;99.90
71754;DHT22;59593;51.716;7.016;2022-09-13T16:42:29;23.00;99.90
71754;DHT22;59593;51.716;7.016;2022-09-13T16:44:55;22.90;99.90
71754;DHT22;59593;51.716;7.016;2022-09-13T16:47:20;22.80;99.90
71754;DHT22;59593;51.716;7.016;2022-09-13T16:49:46;22.90;99.90
71754;DHT22;59593;51.716;7.016;2022-09-13T16:52:11;23.00;99.90
71754;DHT22;59593;51.716;7.016;2022-09-13T16:54:37;22.80;99.90
71754;DHT22;59593;51.716;7.016;2022-09-13T16:57:04;22.60;99.90
71754;DHT22;59593;51.716;7.016;2022-09-13T16:59:32;22.40;99.90
71754;DHT22;59593;51.716;7.016;2022-09-13T17:01:57;22.40;99.90
71754;DHT22;59593;51.716;7.016;2022-09-13T17:04:24;22.30;99.90
71754;DHT22;59593;51.716;7.016;2022-09-13T17:06:50;22.20;99.90
71754;DHT22;59593;51.716;7.016;2022-09-13T17:09:16;22.10;99.90
71754;DHT22;59593;51.716;7.016;2022-09-13T17:11:43;22.00;99.90
71754;DHT22;59593;51.716;7.016;2022-09-13T17:14:10;21.90;99.90
71754;DHT22;59593;51.716;7.016;2022-09-13T17:16:45;21.80;99.90
71754;DHT22;59593;51.716;7.016;2022-09-13T17:19:15;21.80;99.90
71754;DHT22;59593;51.716;7.016;2022-09-13T17:21:41;21.80;99.90
71754;DHT22;59593;51.716;7.016;2022-09-13T17:24:07;21.70;99.90
71754;DHT22;59593;51.716;7.016;2022-09-13T17:26:33;21.80;99.90
71754;DHT22;59593;51.716;7.016;2022-09-13T17:28:59;21.70;99.90
71754;DHT22;59593;51.716;7.016;2022-09-13T17:31:24;21.70;99.90
71754;DHT22;59593;51.716;7.016;2022-09-13T17:33:50;21.70;99.90
71754;DHT22;59593;51.716;7.016;2022-09-13T17:36:18;21.70;99.90
71754;DHT22;59593;51.716;7.016;2022-09-13T17:38:44;21.60;99.90
71754;DHT22;59593;51.716;7.016;2022-09-13T17:43:37;21.50;99.90
71754;DHT22;59593;51.716;7.016;2022-09-13T17:46:04;21.50;99.90
71754;DHT22;59593;51.716;7.016;2022-09-13T17:48:30;21.50;99.90
71754;DHT22;59593;51.716;7.016;2022-09-13T17:51:03;21.30;99.90
71754;DHT22;59593;51.716;7.016;2022-09-13T17:53:30;21.20;99.90
71754;DHT22;59593;51.716;7.016;2022-09-13T17:55:56;21.20;99.90
71754;DHT22;59593;51.716;7.016;2022-09-13T17:58:25;21.10;99.90
71754;DHT22;59593;51.716;7.016;2022-09-13T18:01:06;21.10;99.90
71754;DHT22;59593;51.716;7.016;2022-09-13T18:03:36;21.10;99.90
71754;DHT22;59593;51.716;7.016;2022-09-13T18:06:04;21.10;99.90
71754;DHT22;59593;51.716;7.016;2022-09-13T18:08:31;21.00;99.90
71754;DHT22;59593;51.716;7.016;2022-09-13T18:13:29;20.80;99.90
71754;DHT22;59593;51.716;7.016;2022-09-13T18:16:06;20.70;99.90
71754;DHT22;59593;51.716;7.016;2022-09-13T18:18:33;20.60;99.90
71754;DHT22;59593;51.716;7.016;2022-09-13T18:20:59;20.50;99.90
71754;DHT22;59593;51.716;7.016;2022-09-13T18:23:25;20.50;99.90
71754;DHT22;59593;51.716;7.016;2022-09-13T18:26:00;20.50;99.90
71754;DHT22;59593;51.716;7.016;2022-09-13T18:28:27;20.40;99.90
71754;DHT22;59593;51.716;7.016;2022-09-13T18:30:54;20.40;99.90
71754;DHT22;59593;51.716;7.016;2022-09-13T18:33:20;20.30;99.90
71754;DHT22;59593;51.716;7.016;2022-09-13T18:35:58;20.30;99.90
71754;DHT22;59593;51.716;7.016;2022-09-13T18:38:25;20.20;99.90
71754;DHT22;59593;51.716;7.016;2022-09-13T18:43:30;20.20;99.90
71754;DHT22;59593;51.716;7.016;2022-09-13T18:45:58;20.20;99.90
71754;DHT22;59593;51.716;7.016;2022-09-13T18:48:29;20.10;99.90
71754;DHT22;59593;51.716;7.016;2022-09-13T18:50:55;20.10;99.90
71754;DHT22;59593;51.716;7.016;2022-09-13T18:53:21;20.00;99.90
71754;DHT22;59593;51.716;7.016;2022-09-13T18:55:47;20.00;99.90
71754;DHT22;59593;51.716;7.016;2022-09-13T18:58:12;19.90;99.90
71754;DHT22;59593;51.716;7.016;2022-09-13T19:00:39;19.90;99.90
71754;DHT22;59593;51.716;7.016;2022-09-13T19:03:04;19.90;99.90
71754;DHT22;59593;51.716;7.016;2022-09-13T19:05:32;19.80;99.90
71754;DHT22;59593;51.716;7.016;2022-09-13T19:07:58;19.80;99.90
71754;DHT22;59593;51.716;7.016;2022-09-13T19:10:25;19.70;99.90
71754;DHT22;59593;51.716;7.016;2022-09-13T19:12:52;19.70;99.90